createdAt,value
2023-05-12T00:01:51.810Z,16.80
2023-05-12T00:04:17.899Z,16.94
2023-05-12T00:06:44.053Z,16.79
2023-05-12T00:09:10.211Z,16.85
2023-05-12T00:11:37.281Z,16.83
2023-05-12T00:14:03.400Z,16.71
2023-05-12T00:16:29.517Z,16.61
2023-05-12T00:18:55.812Z,16.54
2023-05-12T00:21:21.927Z,16.88
2023-05-12T00:23:48.053Z,16.80
2023-05-12T00:26:14.162Z,16.34
2023-05-12T00:28:40.237Z,16.27
2023-05-12T00:31:06.379Z,16.63
2023-05-12T00:33:32.520Z,16.70
2023-05-12T00:36:00.466Z,16.39
2023-05-12T00:38:27.226Z,16.15
2023-05-12T00:40:53.305Z,16.73
2023-05-12T00:43:19.380Z,16.64
2023-05-12T00:45:45.575Z,16.16
2023-05-12T00:48:11.835Z,15.69
2023-05-12T00:50:37.999Z,16.10
2023-05-12T00:53:04.160Z,16.24
2023-05-12T00:55:30.733Z,16.49
2023-05-12T00:57:56.817Z,16.62
2023-05-12T01:00:22.929Z,16.52
2023-05-12T01:02:49.076Z,16.61
2023-05-12T01:05:15.280Z,16.52
2023-05-12T01:07:41.892Z,16.40
2023-05-12T01:10:21.058Z,16.45
2023-05-12T01:12:47.674Z,16.56
2023-05-12T01:15:13.834Z,16.34
2023-05-12T01:17:44.891Z,15.16
2023-05-12T01:20:12.029Z,16.49
2023-05-12T01:22:38.690Z,16.33
2023-05-12T01:25:07.425Z,16.53
2023-05-12T01:27:33.950Z,16.46
2023-05-12T01:30:01.601Z,16.52
2023-05-12T01:32:28.764Z,15.53
2023-05-12T01:34:54.948Z,16.13
2023-05-12T01:37:21.284Z,15.83
2023-05-12T01:39:47.431Z,15.80
2023-05-12T01:42:13.504Z,16.12
2023-05-12T01:44:39.603Z,16.37
2023-05-12T01:47:09.113Z,16.39
2023-05-12T01:49:35.317Z,16.51
2023-05-12T01:52:01.393Z,16.48
2023-05-12T01:54:27.541Z,16.50
2023-05-12T01:56:53.592Z,16.36
2023-05-12T01:59:19.732Z,16.07
2023-05-12T02:01:45.875Z,16.29
2023-05-12T02:04:12.094Z,16.35
2023-05-12T02:06:38.323Z,16.46
2023-05-12T02:09:04.466Z,15.99
2023-05-12T02:11:30.523Z,16.16
2023-05-12T02:13:56.653Z,16.29
2023-05-12T02:16:22.846Z,16.06
2023-05-12T02:18:48.992Z,16.27
2023-05-12T02:21:15.331Z,15.78
2023-05-12T02:23:41.406Z,15.86
2023-05-12T02:26:07.619Z,15.67
2023-05-12T02:28:33.708Z,15.62
2023-05-12T02:30:59.840Z,16.00
2023-05-12T02:33:26.172Z,15.11
2023-05-12T02:35:52.258Z,15.46
2023-05-12T02:38:18.442Z,15.94
2023-05-12T02:40:45.802Z,15.91
2023-05-12T02:43:11.865Z,15.63
2023-05-12T02:45:38.510Z,15.42
2023-05-12T02:48:05.139Z,14.87
2023-05-12T02:50:31.368Z,15.42
2023-05-12T02:52:57.456Z,15.03
2023-05-12T02:55:23.654Z,14.45
2023-05-12T02:57:49.728Z,14.46
2023-05-12T03:00:15.952Z,15.33
2023-05-12T03:02:42.386Z,15.61
2023-05-12T03:05:08.825Z,15.47
2023-05-12T03:07:35.118Z,15.55
2023-05-12T03:10:01.338Z,15.61
2023-05-12T03:12:30.757Z,14.50
2023-05-12T03:14:57.026Z,15.54
2023-05-12T03:17:23.309Z,15.18
2023-05-12T03:19:49.397Z,15.28
2023-05-12T03:22:15.520Z,14.68
2023-05-12T03:24:41.637Z,14.71
2023-05-12T03:27:07.760Z,15.15
2023-05-12T03:29:33.855Z,15.16
2023-05-12T03:32:00.017Z,15.16
2023-05-12T03:34:26.084Z,15.08
2023-05-12T03:36:52.155Z,15.19
2023-05-12T03:39:18.221Z,15.12
2023-05-12T03:41:44.314Z,15.14
2023-05-12T03:44:11.568Z,15.21
2023-05-12T03:46:37.828Z,14.63
2023-05-12T03:49:04.016Z,14.76
2023-05-12T03:51:30.499Z,14.90
2023-05-12T03:53:56.585Z,15.06
2023-05-12T03:56:22.713Z,15.41
2023-05-12T03:58:48.830Z,15.23
2023-05-12T04:01:15.152Z,15.50
2023-05-12T04:03:41.326Z,15.34
2023-05-12T04:06:07.697Z,15.11
2023-05-12T04:08:33.909Z,14.42
2023-05-12T04:11:01.626Z,13.65
2023-05-12T04:13:28.687Z,14.64
2023-05-12T04:15:58.552Z,14.36
2023-05-12T04:18:28.212Z,14.52
2023-05-12T04:20:54.699Z,13.85
2023-05-12T04:23:20.913Z,15.21
2023-05-12T04:25:47.042Z,15.29
2023-05-12T04:28:13.254Z,15.50
2023-05-12T04:30:40.079Z,15.63
2023-05-12T04:33:06.274Z,15.62
2023-05-12T04:35:32.409Z,15.63
2023-05-12T04:38:00.584Z,15.64
2023-05-12T04:40:26.927Z,15.83
2023-05-12T04:42:53.162Z,15.79
2023-05-12T04:45:19.512Z,15.80
2023-05-12T04:47:46.082Z,15.87
2023-05-12T04:50:12.681Z,15.92
2023-05-12T04:52:38.817Z,16.20
2023-05-12T04:55:05.847Z,16.17
2023-05-12T04:57:31.938Z,16.16
2023-05-12T04:59:58.710Z,16.18
2023-05-12T05:02:27.890Z,16.17
2023-05-12T05:04:54.072Z,16.20
2023-05-12T05:07:20.230Z,16.12
2023-05-12T05:09:46.280Z,15.81
2023-05-12T05:12:12.412Z,16.11
2023-05-12T05:14:38.548Z,16.27
2023-05-12T05:17:07.065Z,16.24
2023-05-12T05:19:46.158Z,16.26
2023-05-12T05:22:19.259Z,16.25
2023-05-12T05:24:45.345Z,16.18
2023-05-12T05:27:11.935Z,16.26
2023-05-12T05:29:37.992Z,16.36
2023-05-12T05:32:04.545Z,15.21
2023-05-12T05:34:31.121Z,16.10
2023-05-12T05:36:57.230Z,16.32
2023-05-12T05:39:23.382Z,15.43
2023-05-12T05:41:49.447Z,15.75
2023-05-12T05:44:15.515Z,15.23
2023-05-12T05:46:41.634Z,15.42
2023-05-12T05:49:07.821Z,16.12
2023-05-12T05:51:33.914Z,15.86
2023-05-12T05:53:59.963Z,16.26
2023-05-12T05:56:26.328Z,16.58
2023-05-12T05:58:52.556Z,16.93
2023-05-12T06:01:18.648Z,14.49
2023-05-12T06:03:44.831Z,17.05
2023-05-12T06:06:11.078Z,16.61
2023-05-12T06:08:37.168Z,17.10
2023-05-12T06:11:03.470Z,17.03
2023-05-12T06:13:29.525Z,17.12
2023-05-12T06:15:55.612Z,15.97
2023-05-12T06:18:22.084Z,16.43
2023-05-12T06:20:48.314Z,15.91
2023-05-12T06:23:14.393Z,15.84
2023-05-12T06:25:40.633Z,16.29
2023-05-12T06:28:07.268Z,16.53
2023-05-12T06:30:34.126Z,16.74
2023-05-12T06:33:00.530Z,16.27
2023-05-12T06:35:26.907Z,16.74
2023-05-12T06:37:53.034Z,16.80
2023-05-12T06:40:19.198Z,16.42
2023-05-12T06:42:45.347Z,16.53
2023-05-12T06:45:12.350Z,16.55
2023-05-12T06:47:39.624Z,16.56
2023-05-12T06:50:07.686Z,16.48
2023-05-12T06:52:34.479Z,16.60
2023-05-12T06:55:00.579Z,16.16
2023-05-12T06:57:26.661Z,16.34
2023-05-12T06:59:52.741Z,16.06
2023-05-12T07:02:19.134Z,15.57
2023-05-12T07:04:45.213Z,16.16
2023-05-12T07:07:11.276Z,16.69
2023-05-12T07:09:39.837Z,16.93
2023-05-12T07:12:06.497Z,17.20
2023-05-12T07:14:32.580Z,17.05
2023-05-12T07:16:58.616Z,17.39
2023-05-12T07:19:24.766Z,17.29
2023-05-12T07:21:50.828Z,16.92
2023-05-12T07:24:16.940Z,16.00
2023-05-12T07:26:43.861Z,17.54
2023-05-12T07:29:12.067Z,17.42
2023-05-12T07:31:40.013Z,17.79
2023-05-12T07:34:06.579Z,16.84
2023-05-12T07:36:33.022Z,17.88
2023-05-12T07:38:59.134Z,18.12
2023-05-12T07:41:25.487Z,17.93
2023-05-12T07:43:51.549Z,18.18
2023-05-12T07:46:17.578Z,18.67
2023-05-12T07:48:43.638Z,17.33
2023-05-12T07:51:09.885Z,17.91
2023-05-12T07:53:36.135Z,18.49
2023-05-12T07:56:02.360Z,18.51
2023-05-12T07:58:28.531Z,18.62
2023-05-12T08:00:54.744Z,18.32
2023-05-12T08:03:21.012Z,18.09
2023-05-12T08:05:47.184Z,18.65
2023-05-12T08:08:15.950Z,17.77
2023-05-12T08:10:43.288Z,18.09
2023-05-12T08:13:09.421Z,18.21
2023-05-12T08:15:35.577Z,18.03
2023-05-12T08:18:01.877Z,18.47
2023-05-12T08:20:28.053Z,18.76
2023-05-12T08:22:54.376Z,19.06
2023-05-12T08:25:20.793Z,18.85
2023-05-12T08:27:47.092Z,19.20
2023-05-12T08:30:13.420Z,18.61
2023-05-12T08:32:39.704Z,18.71
2023-05-12T08:35:05.888Z,18.89
2023-05-12T08:37:34.345Z,19.15
2023-05-12T08:40:01.026Z,18.92
2023-05-12T08:42:39.057Z,19.00
2023-05-12T08:45:06.795Z,18.88
2023-05-12T08:47:33.649Z,19.88
2023-05-12T08:50:01.791Z,19.84
2023-05-12T08:52:34.799Z,19.65
2023-05-12T08:55:03.269Z,15.14
2023-05-12T08:57:30.545Z,19.44
2023-05-12T08:59:58.635Z,18.93
2023-05-12T09:02:25.341Z,19.26
2023-05-12T09:04:52.149Z,19.40
2023-05-12T09:07:18.989Z,19.03
2023-05-12T09:09:47.062Z,19.69
2023-05-12T09:12:16.829Z,18.84
2023-05-12T09:14:45.176Z,19.49
2023-05-12T09:17:11.965Z,20.28
2023-05-12T09:19:38.104Z,20.11
2023-05-12T09:22:04.326Z,19.98
2023-05-12T09:24:37.971Z,20.12
2023-05-12T09:27:04.518Z,20.79
2023-05-12T09:29:34.455Z,19.89
2023-05-12T09:32:06.079Z,20.59
2023-05-12T09:34:37.688Z,20.77
2023-05-12T09:37:05.827Z,20.95
2023-05-12T09:39:32.567Z,21.40
2023-05-12T09:41:58.781Z,21.22
2023-05-12T09:44:25.521Z,21.12
2023-05-12T09:46:52.528Z,20.16
2023-05-12T09:49:19.889Z,21.09
2023-05-12T09:51:46.222Z,22.00
2023-05-12T09:54:13.250Z,21.99
2023-05-12T09:56:40.211Z,20.93
2023-05-12T09:59:06.574Z,21.11
2023-05-12T10:01:33.954Z,21.25
2023-05-12T10:04:00.401Z,20.49
2023-05-12T10:06:33.063Z,20.23
2023-05-12T10:09:15.080Z,21.14
2023-05-12T10:11:42.228Z,21.59
2023-05-12T10:14:09.208Z,20.61
2023-05-12T10:16:35.804Z,21.66
2023-05-12T10:19:03.668Z,20.73
2023-05-12T10:21:30.001Z,21.29
2023-05-12T10:23:56.342Z,20.32
2023-05-12T10:26:22.785Z,21.60
2023-05-12T10:28:49.829Z,21.47
2023-05-12T10:31:16.254Z,21.83
2023-05-12T10:33:42.371Z,21.54
2023-05-12T10:36:18.738Z,20.81
2023-05-12T10:38:48.964Z,20.45
2023-05-12T10:41:16.420Z,20.10
2023-05-12T10:43:46.568Z,20.09
2023-05-12T10:46:12.579Z,20.18
2023-05-12T10:49:00.280Z,20.07
2023-05-12T10:51:28.101Z,20.21
2023-05-12T10:54:05.355Z,20.22
2023-05-12T10:56:40.335Z,20.14
2023-05-12T10:59:20.931Z,20.14
2023-05-12T11:02:08.142Z,19.65
2023-05-12T11:04:46.020Z,20.42
2023-05-12T11:07:15.537Z,20.26
2023-05-12T11:09:56.653Z,20.48
2023-05-12T11:12:25.960Z,19.26
2023-05-12T11:14:52.140Z,20.02
2023-05-12T11:17:18.255Z,20.31
2023-05-12T11:19:48.851Z,20.07
2023-05-12T11:22:20.710Z,20.27
2023-05-12T11:24:47.920Z,20.40
2023-05-12T11:27:18.453Z,20.57
2023-05-12T11:29:46.461Z,20.21
2023-05-12T11:32:14.967Z,20.59
2023-05-12T11:34:41.111Z,20.47
2023-05-12T11:37:07.341Z,17.21
2023-05-12T11:39:33.493Z,20.54
2023-05-12T11:42:12.043Z,20.72
2023-05-12T11:44:47.070Z,20.93
2023-05-12T11:47:14.372Z,20.70
2023-05-12T11:49:56.356Z,20.55
2023-05-12T11:52:23.627Z,20.90
2023-05-12T11:54:51.358Z,20.71
2023-05-12T11:57:33.613Z,21.04
2023-05-12T12:00:02.308Z,20.81
2023-05-12T12:02:28.652Z,20.95
2023-05-12T12:04:54.908Z,21.30
2023-05-12T12:07:32.032Z,20.98
2023-05-12T12:09:58.814Z,20.72
2023-05-12T12:12:24.994Z,20.77
2023-05-12T12:14:51.195Z,20.89
2023-05-12T12:17:17.297Z,20.81
2023-05-12T12:19:43.432Z,20.97
2023-05-12T12:22:09.593Z,20.90
2023-05-12T12:24:35.870Z,21.25
2023-05-12T12:27:01.946Z,20.78
2023-05-12T12:29:28.135Z,20.76
2023-05-12T12:31:54.203Z,20.93
2023-05-12T12:34:20.252Z,21.04
2023-05-12T12:36:47.355Z,20.99
2023-05-12T12:39:13.923Z,21.23
2023-05-12T12:41:40.362Z,20.98
2023-05-12T12:44:06.594Z,22.02
2023-05-12T12:46:32.777Z,21.73
2023-05-12T12:48:58.954Z,21.83
2023-05-12T12:51:32.613Z,21.26
2023-05-12T12:54:04.839Z,21.09
2023-05-12T12:56:30.963Z,21.33
2023-05-12T12:58:57.008Z,22.33
2023-05-12T13:01:23.394Z,22.68
2023-05-12T13:03:49.461Z,22.47
2023-05-12T13:06:15.572Z,21.98
2023-05-12T13:08:42.325Z,21.51
2023-05-12T13:11:08.545Z,22.19
2023-05-12T13:13:36.240Z,21.66
2023-05-12T13:16:02.303Z,21.65
2023-05-12T13:18:28.404Z,21.12
2023-05-12T13:20:54.529Z,21.18
2023-05-12T13:23:20.807Z,21.30
2023-05-12T13:25:48.136Z,20.92
2023-05-12T13:28:14.196Z,20.72
2023-05-12T13:30:40.347Z,20.95
2023-05-12T13:33:06.686Z,20.87
2023-05-12T13:35:32.895Z,20.82
2023-05-12T13:37:59.019Z,21.13
2023-05-12T13:40:25.133Z,20.20
2023-05-12T13:42:51.254Z,20.76
2023-05-12T13:45:19.447Z,20.74
2023-05-12T13:47:45.784Z,20.47
2023-05-12T13:50:11.907Z,20.74
2023-05-12T13:52:38.026Z,20.87
2023-05-12T13:55:04.517Z,20.67
2023-05-12T13:57:30.588Z,20.67
2023-05-12T13:59:57.815Z,20.39
2023-05-12T14:02:24.489Z,21.11
2023-05-12T14:04:50.936Z,21.33
2023-05-12T14:07:18.588Z,21.63
2023-05-12T14:09:44.902Z,22.25
2023-05-12T14:12:11.251Z,22.32
2023-05-12T14:14:37.381Z,22.03
2023-05-12T14:17:03.592Z,22.86
2023-05-12T14:19:29.971Z,22.79
2023-05-12T14:21:56.029Z,22.73
2023-05-12T14:24:22.108Z,22.52
2023-05-12T14:26:48.565Z,22.56
2023-05-12T14:29:14.651Z,22.93
2023-05-12T14:31:40.790Z,22.29
2023-05-12T14:34:08.469Z,21.84
2023-05-12T14:36:34.612Z,21.67
2023-05-12T14:39:00.675Z,21.58
2023-05-12T14:41:26.782Z,21.64
2023-05-12T14:43:52.862Z,21.75
2023-05-12T14:46:18.988Z,21.42
2023-05-12T14:48:45.198Z,21.44
2023-05-12T14:51:11.298Z,21.57
2023-05-12T14:53:37.382Z,21.71
2023-05-12T14:56:03.659Z,21.71
2023-05-12T14:58:30.169Z,21.87
2023-05-12T15:00:56.348Z,21.57
2023-05-12T15:03:23.002Z,21.46
2023-05-12T15:06:04.891Z,21.45
2023-05-12T15:08:32.297Z,21.61
2023-05-12T15:10:58.396Z,21.33
2023-05-12T15:13:24.478Z,20.69
2023-05-12T15:15:51.883Z,21.25
2023-05-12T15:18:20.260Z,21.11
2023-05-12T15:20:46.386Z,21.19
2023-05-12T15:23:12.522Z,21.42
2023-05-12T15:25:39.893Z,21.30
2023-05-12T15:28:06.787Z,21.54
2023-05-12T15:30:34.214Z,21.67
2023-05-12T15:33:03.264Z,21.78
2023-05-12T15:35:29.805Z,21.30
2023-05-12T15:37:55.873Z,21.50
2023-05-12T15:40:22.091Z,21.36
2023-05-12T15:42:48.814Z,21.63
2023-05-12T15:45:14.997Z,21.51
2023-05-12T15:47:41.203Z,22.00
2023-05-12T15:50:09.602Z,22.11
2023-05-12T15:52:35.687Z,21.71
2023-05-12T15:55:01.794Z,21.06
2023-05-12T15:57:27.855Z,22.01
2023-05-12T15:59:58.103Z,21.94
2023-05-12T16:02:24.469Z,22.45
2023-05-12T16:04:50.640Z,22.09
2023-05-12T16:07:16.823Z,22.03
2023-05-12T16:09:42.888Z,22.06
2023-05-12T16:12:10.723Z,22.19
2023-05-12T16:14:36.872Z,22.10
2023-05-12T16:17:05.672Z,21.98
2023-05-12T16:19:31.791Z,21.70
2023-05-12T16:21:58.755Z,21.73
2023-05-12T16:24:27.694Z,21.30
2023-05-12T16:26:55.150Z,21.76
2023-05-12T16:29:21.228Z,21.34
2023-05-12T16:31:47.350Z,21.24
2023-05-12T16:34:13.425Z,21.20
2023-05-12T16:36:39.584Z,21.20
2023-05-12T16:39:06.860Z,21.13
2023-05-12T16:41:33.047Z,20.77
2023-05-12T16:44:00.162Z,21.09
2023-05-12T16:46:26.398Z,21.15
2023-05-12T16:48:52.508Z,21.22
2023-05-12T16:51:18.602Z,20.99
2023-05-12T16:53:44.671Z,21.58
2023-05-12T16:56:10.950Z,21.64
2023-05-12T16:58:37.135Z,21.47
2023-05-12T17:01:04.072Z,21.50
2023-05-12T17:03:30.886Z,21.52
2023-05-12T17:05:57.040Z,20.99
2023-05-12T17:08:23.936Z,21.10
2023-05-12T17:10:50.948Z,21.09
2023-05-12T17:13:17.053Z,21.23
2023-05-12T17:15:43.375Z,21.24
2023-05-12T17:18:09.595Z,21.60
2023-05-12T17:20:35.754Z,21.78
2023-05-12T17:23:01.907Z,21.31
2023-05-12T17:25:28.550Z,21.50
2023-05-12T17:27:55.832Z,21.65
2023-05-12T17:30:22.121Z,21.37
2023-05-12T17:32:48.277Z,21.27
2023-05-12T17:35:14.426Z,21.09
2023-05-12T17:37:40.821Z,20.86
2023-05-12T17:40:07.532Z,21.23
2023-05-12T17:42:34.472Z,20.62
2023-05-12T17:45:01.252Z,20.75
2023-05-12T17:47:27.467Z,20.71
2023-05-12T17:49:54.227Z,21.48
2023-05-12T17:52:20.393Z,20.51
2023-05-12T17:54:46.508Z,21.14
2023-05-12T17:57:12.617Z,21.41
2023-05-12T17:59:38.676Z,21.03
2023-05-12T18:02:05.160Z,21.29
2023-05-12T18:04:31.393Z,20.85
2023-05-12T18:06:58.731Z,21.03
2023-05-12T18:09:25.034Z,20.76
2023-05-12T18:11:51.876Z,20.76
2023-05-12T18:14:17.945Z,21.14
2023-05-12T18:16:44.042Z,21.25
2023-05-12T18:19:10.707Z,21.29
2023-05-12T18:21:37.368Z,20.78
2023-05-12T18:24:04.094Z,20.78
2023-05-12T18:26:30.193Z,21.26
2023-05-12T18:28:56.557Z,21.41
2023-05-12T18:31:22.719Z,21.39
2023-05-12T18:33:49.423Z,21.33
2023-05-12T18:36:15.923Z,21.46
2023-05-12T18:38:42.537Z,21.40
2023-05-12T18:41:08.770Z,21.34
2023-05-12T18:43:35.482Z,21.39
2023-05-12T18:46:02.121Z,21.36
2023-05-12T18:48:28.354Z,21.29
2023-05-12T18:50:55.331Z,21.26
2023-05-12T18:53:21.869Z,21.30
2023-05-12T18:55:49.069Z,21.25
2023-05-12T18:58:18.084Z,21.10
2023-05-12T19:00:44.386Z,21.25
2023-05-12T19:03:10.624Z,21.15
2023-05-12T19:05:37.153Z,21.12
2023-05-12T19:08:03.484Z,20.91
2023-05-12T19:10:30.034Z,20.88
2023-05-12T19:12:56.221Z,20.82
2023-05-12T19:15:22.623Z,20.95
2023-05-12T19:17:49.389Z,20.73
2023-05-12T19:20:15.625Z,20.03
2023-05-12T19:22:41.827Z,20.25
2023-05-12T19:25:08.732Z,20.47
2023-05-12T19:27:34.828Z,20.51
2023-05-12T19:30:04.514Z,20.50
2023-05-12T19:32:31.750Z,20.42
2023-05-12T19:34:59.432Z,20.48
2023-05-12T19:37:26.604Z,20.26
2023-05-12T19:39:53.118Z,20.40
2023-05-12T19:42:19.279Z,19.93
2023-05-12T19:44:45.324Z,20.43
2023-05-12T19:47:11.934Z,20.17
2023-05-12T19:49:38.251Z,20.51
2023-05-12T19:52:05.380Z,20.39
2023-05-12T19:54:31.514Z,19.31
2023-05-12T19:56:57.850Z,20.04
2023-05-12T19:59:24.110Z,20.36
2023-05-12T20:01:50.643Z,19.85
2023-05-12T20:04:16.853Z,19.67
2023-05-12T20:06:43.033Z,19.93
2023-05-12T20:09:09.637Z,19.62
2023-05-12T20:11:35.849Z,19.12
2023-05-12T20:14:01.955Z,19.16
2023-05-12T20:16:28.911Z,19.65
2023-05-12T20:18:55.319Z,19.39
2023-05-12T20:21:21.465Z,19.99
2023-05-12T20:23:47.550Z,20.05
2023-05-12T20:26:13.707Z,20.02
2023-05-12T20:28:40.395Z,19.89
2023-05-12T20:31:06.672Z,19.93
2023-05-12T20:33:32.974Z,19.92
2023-05-12T20:35:59.248Z,20.02
2023-05-12T20:38:26.031Z,20.00
2023-05-12T20:40:52.246Z,19.74
2023-05-12T20:43:18.376Z,19.90
2023-05-12T20:45:44.496Z,19.11
2023-05-12T20:48:10.718Z,19.80
2023-05-12T20:50:36.867Z,19.81
2023-05-12T20:53:03.918Z,19.75
2023-05-12T20:55:32.292Z,19.84
2023-05-12T20:57:58.356Z,19.57
2023-05-12T21:00:24.434Z,19.61
2023-05-12T21:02:51.523Z,19.53
2023-05-12T21:05:18.548Z,19.55
2023-05-12T21:07:44.751Z,19.64
2023-05-12T21:10:10.834Z,19.52
2023-05-12T21:12:37.875Z,18.88
2023-05-12T21:15:04.650Z,19.44
2023-05-12T21:17:30.726Z,19.43
2023-05-12T21:19:56.862Z,19.40
2023-05-12T21:22:22.934Z,19.50
2023-05-12T21:24:51.065Z,19.31
2023-05-12T21:27:17.893Z,19.21
2023-05-12T21:29:43.946Z,19.23
2023-05-12T21:32:10.522Z,18.81
2023-05-12T21:34:36.737Z,19.22
2023-05-12T21:37:02.909Z,18.53
2023-05-12T21:39:29.049Z,18.95
2023-05-12T21:41:55.139Z,19.17
2023-05-12T21:44:21.197Z,19.06
2023-05-12T21:46:47.356Z,18.97
2023-05-12T21:49:13.487Z,18.96
2023-05-12T21:51:39.550Z,18.91
2023-05-12T21:54:05.667Z,18.86
2023-05-12T21:56:31.832Z,18.17
2023-05-12T21:58:57.898Z,18.67
2023-05-12T22:01:24.083Z,18.81
2023-05-12T22:03:50.650Z,18.86
2023-05-12T22:06:17.176Z,17.67
2023-05-12T22:08:43.352Z,18.66
2023-05-12T22:11:10.505Z,18.29
2023-05-12T22:13:36.735Z,17.82
2023-05-12T22:16:03.211Z,17.47
2023-05-12T22:18:29.325Z,18.20
2023-05-12T22:20:55.443Z,18.31
2023-05-12T22:23:21.593Z,18.04
2023-05-12T22:25:47.704Z,17.82
2023-05-12T22:28:13.823Z,18.26
2023-05-12T22:30:41.198Z,18.22
2023-05-12T22:33:07.352Z,18.23
2023-05-12T22:35:33.480Z,17.55
2023-05-12T22:37:59.671Z,18.15
2023-05-12T22:40:26.441Z,18.02
2023-05-12T22:42:52.570Z,18.01
2023-05-12T22:45:18.725Z,18.04
2023-05-12T22:47:44.981Z,17.89
2023-05-12T22:50:11.418Z,16.77
2023-05-12T22:52:37.563Z,17.39
2023-05-12T22:55:04.088Z,17.16
2023-05-12T22:57:30.328Z,17.57
2023-05-12T22:59:56.418Z,17.71
2023-05-12T23:02:22.525Z,17.76
2023-05-12T23:04:48.652Z,17.70
2023-05-12T23:07:15.150Z,17.58
2023-05-12T23:09:41.267Z,16.75
2023-05-12T23:12:07.572Z,16.58
2023-05-12T23:14:33.679Z,17.32
2023-05-12T23:16:59.804Z,17.54
2023-05-12T23:19:25.937Z,17.42
2023-05-12T23:21:52.023Z,17.44
2023-05-12T23:24:18.338Z,17.23
2023-05-12T23:26:44.809Z,16.99
2023-05-12T23:29:10.963Z,17.08
2023-05-12T23:31:37.142Z,17.21
2023-05-12T23:34:03.219Z,17.34
2023-05-12T23:36:30.676Z,17.42
2023-05-12T23:38:56.805Z,17.09
2023-05-12T23:41:22.940Z,16.19
2023-05-12T23:43:49.036Z,16.82
2023-05-12T23:46:15.137Z,15.60
2023-05-12T23:48:41.536Z,16.30
2023-05-12T23:51:07.615Z,17.04
2023-05-12T23:53:33.796Z,17.27
2023-05-12T23:56:01.199Z,17.37
2023-05-12T23:58:27.261Z,17.40
